createdAt,value
2022-11-13T00:00:33.559Z,10.32
2022-11-13T00:03:21.113Z,7.40
2022-11-13T00:06:09.341Z,8.98
2022-11-13T00:08:57.217Z,8.07
2022-11-13T00:11:46.510Z,8.43
2022-11-13T00:14:34.489Z,7.05
2022-11-13T00:17:22.111Z,6.57
2022-11-13T00:20:10.172Z,8.93
2022-11-13T00:22:57.702Z,7.18
2022-11-13T00:25:45.346Z,7.65
2022-11-13T00:28:34.655Z,6.95
2022-11-13T00:31:22.406Z,8.45
2022-11-13T00:34:33.578Z,7.07
2022-11-13T00:37:19.455Z,6.80
2022-11-13T00:40:07.935Z,6.60
2022-11-13T00:42:55.498Z,6.20
2022-11-13T00:45:44.666Z,6.93
2022-11-13T00:48:32.560Z,6.07
2022-11-13T00:51:20.238Z,5.60
2022-11-13T00:54:07.970Z,6.22
2022-11-13T00:56:55.647Z,6.05
2022-11-13T00:59:43.213Z,5.75
2022-11-13T01:02:32.657Z,6.85
2022-11-13T01:05:20.327Z,6.18
2022-11-13T01:08:08.041Z,5.07
2022-11-13T01:10:55.439Z,7.65
2022-11-13T01:13:44.883Z,5.70
2022-11-13T01:16:32.573Z,5.35
2022-11-13T01:19:21.786Z,5.38
2022-11-13T01:22:09.891Z,5.35
2022-11-13T01:24:57.340Z,5.82
2022-11-13T01:27:44.994Z,5.45
2022-11-13T01:30:32.903Z,5.80
2022-11-13T01:33:20.589Z,6.55
2022-11-13T01:36:12.787Z,5.47
2022-11-13T01:39:00.574Z,5.38
2022-11-13T01:41:48.280Z,5.53
2022-11-13T01:44:52.781Z,5.18
2022-11-13T01:47:40.976Z,5.25
2022-11-13T01:50:28.754Z,5.18
2022-11-13T01:53:18.242Z,4.53
2022-11-13T01:56:06.440Z,5.38
2022-11-13T01:59:08.292Z,4.85
2022-11-13T02:01:57.115Z,5.07
2022-11-13T02:04:45.139Z,4.72
2022-11-13T02:07:33.179Z,4.30
2022-11-13T02:10:22.264Z,4.55
2022-11-13T02:13:10.512Z,4.75
2022-11-13T02:15:58.883Z,4.65
2022-11-13T02:18:47.038Z,4.90
2022-11-13T02:21:39.262Z,4.82
2022-11-13T02:24:32.564Z,5.13
2022-11-13T02:27:27.551Z,4.50
2022-11-13T02:30:23.703Z,5.00
2022-11-13T02:33:26.863Z,4.70
2022-11-13T02:36:16.061Z,4.75
2022-11-13T02:39:07.665Z,4.85
2022-11-13T02:41:56.991Z,5.20
2022-11-13T02:44:44.763Z,4.35
2022-11-13T02:47:32.856Z,5.32
2022-11-13T02:50:20.724Z,5.22
2022-11-13T02:53:09.456Z,4.45
2022-11-13T02:55:57.083Z,5.88
2022-11-13T02:58:46.114Z,4.63
2022-11-13T03:01:33.918Z,4.75
2022-11-13T03:04:21.409Z,4.88
2022-11-13T03:07:09.241Z,5.00
2022-11-13T03:09:56.993Z,4.90
2022-11-13T03:12:45.428Z,4.53
2022-11-13T03:15:35.703Z,4.05
2022-11-13T03:18:23.588Z,4.28
2022-11-13T03:21:12.389Z,4.38
2022-11-13T03:24:00.425Z,3.88
2022-11-13T03:26:48.256Z,4.60
2022-11-13T03:29:36.010Z,4.30
2022-11-13T03:32:25.044Z,4.28
2022-11-13T03:35:13.042Z,4.50
2022-11-13T03:38:00.544Z,6.03
2022-11-13T03:40:48.476Z,5.18
2022-11-13T03:43:36.422Z,4.50
2022-11-13T03:46:24.090Z,4.03
2022-11-13T03:49:12.973Z,4.50
2022-11-13T03:52:00.830Z,4.55
2022-11-13T03:54:48.474Z,4.20
2022-11-13T03:57:36.288Z,4.13
2022-11-13T04:00:23.911Z,3.90
2022-11-13T04:03:11.894Z,4.18
2022-11-13T04:06:01.271Z,4.40
2022-11-13T04:08:49.067Z,4.72
2022-11-13T04:11:36.549Z,5.75
2022-11-13T04:14:24.208Z,4.15
2022-11-13T04:17:12.039Z,3.97
2022-11-13T04:19:59.581Z,4.60
2022-11-13T04:22:48.428Z,4.00
2022-11-13T04:25:36.424Z,4.00
2022-11-13T04:28:24.343Z,4.15
2022-11-13T04:31:12.176Z,4.05
2022-11-13T04:33:59.797Z,4.28
2022-11-13T04:36:47.337Z,3.90
2022-11-13T04:39:36.433Z,3.80
2022-11-13T04:42:53.175Z,4.07
2022-11-13T04:45:40.743Z,3.83
2022-11-13T04:48:29.171Z,3.70
2022-11-13T04:51:16.987Z,4.05
2022-11-13T04:54:04.850Z,3.88
2022-11-13T04:56:53.714Z,3.67
2022-11-13T04:59:41.611Z,3.42
2022-11-13T05:02:29.303Z,4.18
2022-11-13T05:05:16.911Z,3.58
2022-11-13T05:08:04.657Z,4.22
2022-11-13T05:10:52.590Z,3.85
2022-11-13T05:13:41.667Z,3.92
2022-11-13T05:16:29.152Z,3.42
2022-11-13T05:19:16.538Z,3.70
2022-11-13T05:22:04.469Z,4.25
2022-11-13T05:24:52.094Z,3.90
2022-11-13T05:27:39.627Z,3.97
2022-11-13T05:30:28.628Z,4.97
2022-11-13T05:33:16.425Z,4.18
2022-11-13T05:36:04.708Z,3.80
2022-11-13T05:38:52.697Z,4.13
2022-11-13T05:41:40.533Z,3.70
2022-11-13T05:44:28.171Z,4.20
2022-11-13T05:47:17.216Z,3.50
2022-11-13T05:50:05.278Z,4.43
2022-11-13T05:52:53.009Z,3.45
2022-11-13T05:55:40.538Z,3.80
2022-11-13T05:58:28.882Z,4.40
2022-11-13T06:01:19.530Z,4.22
2022-11-13T06:04:09.423Z,4.25
2022-11-13T06:06:57.036Z,3.75
2022-11-13T06:09:44.509Z,4.22
2022-11-13T06:12:32.470Z,3.92
2022-11-13T06:15:19.934Z,3.80
2022-11-13T06:18:07.662Z,3.80
2022-11-13T06:20:56.706Z,3.85
2022-11-13T06:23:44.848Z,4.05
2022-11-13T06:26:34.196Z,4.15
2022-11-13T06:29:22.238Z,4.30
2022-11-13T06:32:09.832Z,4.38
2022-11-13T06:34:57.929Z,3.97
2022-11-13T06:37:47.004Z,4.75
2022-11-13T06:40:34.867Z,4.05
2022-11-13T06:43:22.499Z,4.40
2022-11-13T06:46:13.031Z,4.10
2022-11-13T06:49:01.118Z,3.97
2022-11-13T06:51:49.043Z,4.22
2022-11-13T06:54:38.061Z,3.92
2022-11-13T06:57:25.877Z,3.78
2022-11-13T07:00:14.621Z,3.85
2022-11-13T07:03:02.662Z,4.03
2022-11-13T07:06:05.374Z,4.20
2022-11-13T07:08:54.884Z,3.80
2022-11-13T07:11:43.914Z,4.07
2022-11-13T07:14:31.754Z,4.05
2022-11-13T07:17:19.546Z,4.22
2022-11-13T07:20:07.950Z,4.25
2022-11-13T07:22:58.661Z,4.00
2022-11-13T07:25:46.582Z,5.68
2022-11-13T07:28:35.767Z,4.30
2022-11-13T07:31:23.668Z,4.20
2022-11-13T07:34:11.143Z,5.68
2022-11-13T07:36:58.723Z,5.43
2022-11-13T07:39:46.334Z,5.28
2022-11-13T07:42:34.226Z,3.75
2022-11-13T07:45:23.192Z,4.32
2022-11-13T07:48:12.051Z,6.45
2022-11-13T07:51:02.769Z,5.93
2022-11-13T07:53:50.655Z,4.75
2022-11-13T07:56:38.435Z,6.40
2022-11-13T07:59:26.060Z,8.90
2022-11-13T08:02:20.177Z,6.22
2022-11-13T08:05:11.410Z,5.07
2022-11-13T08:07:59.689Z,5.90
2022-11-13T08:10:47.579Z,6.30
2022-11-13T08:13:35.627Z,4.60
2022-11-13T08:16:23.734Z,6.93
2022-11-13T08:19:13.180Z,4.15
2022-11-13T08:22:00.924Z,4.00
2022-11-13T08:24:48.561Z,7.55
2022-11-13T08:27:36.076Z,5.50
2022-11-13T08:30:24.648Z,7.35
2022-11-13T08:33:12.579Z,22.70
2022-11-13T08:36:13.276Z,8.25
2022-11-13T08:39:01.191Z,6.07
2022-11-13T08:41:48.784Z,7.65
2022-11-13T08:44:36.397Z,7.60
2022-11-13T08:47:29.184Z,6.63
2022-11-13T08:50:17.269Z,6.03
2022-11-13T08:53:06.106Z,6.25
2022-11-13T08:55:54.221Z,7.20
2022-11-13T08:58:41.837Z,4.45
2022-11-13T09:01:29.703Z,8.40
2022-11-13T09:04:17.211Z,9.30
2022-11-13T09:07:04.835Z,5.40
2022-11-13T09:09:53.839Z,7.15
2022-11-13T09:12:41.805Z,5.25
2022-11-13T09:15:29.657Z,7.82
2022-11-13T09:18:17.341Z,6.65
2022-11-13T09:21:05.618Z,5.30
2022-11-13T09:23:53.516Z,6.93
2022-11-13T09:26:42.470Z,4.45
2022-11-13T09:29:30.386Z,4.32
2022-11-13T09:32:18.330Z,5.15
2022-11-13T09:35:07.000Z,6.35
2022-11-13T09:37:54.510Z,4.13
2022-11-13T09:40:48.452Z,5.82
2022-11-13T09:43:42.470Z,4.63
2022-11-13T09:46:38.373Z,4.38
2022-11-13T09:49:30.000Z,4.78
2022-11-13T09:52:22.597Z,4.57
2022-11-13T09:55:14.717Z,4.40
2022-11-13T09:58:10.716Z,4.57
2022-11-13T10:01:01.847Z,4.68
2022-11-13T10:04:01.402Z,6.80
2022-11-13T10:07:05.952Z,4.68
2022-11-13T10:10:06.728Z,4.55
2022-11-13T10:12:58.114Z,4.22
2022-11-13T10:15:50.517Z,4.50
2022-11-13T10:18:40.890Z,3.95
2022-11-13T10:21:35.450Z,4.28
2022-11-13T10:24:27.641Z,3.67
2022-11-13T10:27:16.783Z,4.45
2022-11-13T10:30:05.109Z,4.32
2022-11-13T10:32:53.049Z,4.25
2022-11-13T10:35:56.261Z,3.80
2022-11-13T10:38:50.319Z,4.18
2022-11-13T10:41:48.473Z,5.22
2022-11-13T10:44:36.729Z,4.45
2022-11-13T10:47:56.703Z,4.47
2022-11-13T10:50:35.702Z,4.40
2022-11-13T10:53:26.721Z,4.00
2022-11-13T10:56:29.591Z,4.30
2022-11-13T10:59:20.073Z,4.38
2022-11-13T11:02:19.247Z,4.50
2022-11-13T11:05:17.298Z,4.18
2022-11-13T11:08:11.156Z,4.90
2022-11-13T11:11:20.297Z,4.00
2022-11-13T11:14:22.076Z,4.30
2022-11-13T11:17:13.126Z,4.03
2022-11-13T11:20:04.953Z,4.55
2022-11-13T11:22:56.515Z,4.43
2022-11-13T11:25:48.786Z,3.97
2022-11-13T11:28:43.695Z,5.60
2022-11-13T11:31:36.964Z,4.30
2022-11-13T11:34:33.075Z,4.93
2022-11-13T11:37:22.769Z,4.68
2022-11-13T11:40:21.585Z,4.63
2022-11-13T11:43:17.887Z,5.28
2022-11-13T11:46:07.185Z,4.07
2022-11-13T11:49:01.177Z,4.28
2022-11-13T11:52:01.541Z,4.15
2022-11-13T11:54:59.509Z,4.13
2022-11-13T11:57:53.539Z,4.63
2022-11-13T12:00:48.130Z,3.97
2022-11-13T12:04:10.499Z,6.15
2022-11-13T12:07:13.840Z,4.75
2022-11-13T12:10:11.343Z,4.13
2022-11-13T12:13:21.714Z,4.40
2022-11-13T12:16:22.341Z,4.35
2022-11-13T12:19:23.347Z,4.50
2022-11-13T12:22:18.483Z,4.72
2022-11-13T12:25:19.852Z,4.70
2022-11-13T12:28:16.618Z,4.78
2022-11-13T12:31:18.531Z,4.53
2022-11-13T12:34:14.063Z,4.75
2022-11-13T12:37:06.522Z,4.18
2022-11-13T12:39:59.170Z,4.45
2022-11-13T12:42:53.133Z,4.07
2022-11-13T12:45:52.137Z,4.13
2022-11-13T12:48:42.142Z,4.65
2022-11-13T12:51:41.018Z,4.68
2022-11-13T12:54:31.900Z,4.35
2022-11-13T12:57:27.218Z,4.18
2022-11-13T13:00:27.910Z,4.45
2022-11-13T13:03:45.955Z,4.65
2022-11-13T13:06:47.515Z,5.00
2022-11-13T13:09:51.013Z,4.40
2022-11-13T13:12:50.435Z,4.57
2022-11-13T13:15:40.297Z,4.70
2022-11-13T13:18:31.336Z,4.63
2022-11-13T13:21:20.976Z,4.18
2022-11-13T13:24:10.781Z,4.50
2022-11-13T13:27:00.911Z,4.88
2022-11-13T13:29:48.722Z,4.35
2022-11-13T13:32:45.742Z,4.68
2022-11-13T13:35:40.591Z,4.50
2022-11-13T13:38:34.182Z,4.80
2022-11-13T13:41:35.307Z,4.70
2022-11-13T13:44:50.970Z,4.65
2022-11-13T13:47:41.890Z,4.38
2022-11-13T13:50:31.952Z,5.15
2022-11-13T13:53:24.862Z,4.93
2022-11-13T13:56:15.140Z,4.43
2022-11-13T13:59:03.801Z,4.68
2022-11-13T14:01:59.206Z,4.35
2022-11-13T14:04:48.594Z,4.40
2022-11-13T14:07:38.356Z,4.35
2022-11-13T14:10:28.239Z,4.65
2022-11-13T14:13:24.155Z,4.28
2022-11-13T14:16:11.966Z,4.57
2022-11-13T14:19:06.599Z,4.30
2022-11-13T14:21:57.517Z,4.32
2022-11-13T14:24:49.393Z,4.90
2022-11-13T14:27:38.799Z,4.60
2022-11-13T14:30:28.484Z,4.40
2022-11-13T14:33:23.261Z,4.47
2022-11-13T14:36:13.508Z,4.38
2022-11-13T14:39:01.909Z,4.30
2022-11-13T14:41:52.863Z,4.15
2022-11-13T14:44:40.740Z,4.60
2022-11-13T14:47:31.961Z,3.90
2022-11-13T14:50:24.828Z,4.32
2022-11-13T14:53:13.896Z,4.18
2022-11-13T14:56:04.837Z,4.70
2022-11-13T14:58:52.564Z,4.30
2022-11-13T15:01:40.374Z,4.47
2022-11-13T15:04:28.756Z,4.40
2022-11-13T15:07:30.048Z,4.50
2022-11-13T15:10:22.086Z,4.00
2022-11-13T15:13:14.008Z,4.00
2022-11-13T15:16:02.206Z,3.95
2022-11-13T15:18:53.541Z,3.95
2022-11-13T15:21:44.948Z,4.00
2022-11-13T15:24:38.945Z,4.63
2022-11-13T15:27:28.434Z,4.07
2022-11-13T15:30:16.798Z,4.38
2022-11-13T15:33:07.830Z,4.03
2022-11-13T15:35:55.311Z,4.30
2022-11-13T15:38:42.863Z,3.85
2022-11-13T15:41:33.089Z,4.05
2022-11-13T15:44:22.586Z,3.97
2022-11-13T15:47:30.125Z,4.25
2022-11-13T15:50:18.217Z,4.15
2022-11-13T15:53:07.284Z,4.50
2022-11-13T15:55:55.009Z,3.95
2022-11-13T15:58:42.612Z,4.38
2022-11-13T16:01:31.749Z,4.07
2022-11-13T16:04:19.693Z,4.07
2022-11-13T16:07:13.427Z,4.10
2022-11-13T16:10:00.924Z,3.60
2022-11-13T16:12:48.414Z,11.35
2022-11-13T16:15:36.296Z,11.07
2022-11-13T16:18:27.118Z,10.65
2022-11-13T16:21:15.175Z,8.65
2022-11-13T16:24:02.961Z,8.48
2022-11-13T16:26:55.523Z,6.93
2022-11-13T16:29:43.439Z,7.93
2022-11-13T16:32:31.654Z,15.63
2022-11-13T16:35:22.091Z,18.33
2022-11-13T16:38:14.007Z,9.65
2022-11-13T16:41:02.933Z,14.30
2022-11-13T16:43:50.422Z,15.00
2022-11-13T16:46:41.815Z,13.57
2022-11-13T16:49:29.933Z,9.18
2022-11-13T16:52:19.669Z,7.13
2022-11-13T16:55:07.731Z,13.48
2022-11-13T16:57:55.613Z,6.57
2022-11-13T17:00:43.670Z,9.30
2022-11-13T17:03:31.930Z,8.07
2022-11-13T17:06:24.243Z,8.15
2022-11-13T17:09:14.246Z,6.80
2022-11-13T17:12:01.956Z,4.75
2022-11-13T17:14:49.871Z,5.57
2022-11-13T17:17:37.832Z,5.97
2022-11-13T17:20:26.631Z,7.43
2022-11-13T17:23:16.352Z,7.32
2022-11-13T17:26:06.756Z,7.03
2022-11-13T17:28:54.923Z,3.38
2022-11-13T17:31:43.523Z,9.60
2022-11-13T17:34:31.428Z,9.05
2022-11-13T17:37:24.028Z,6.50
2022-11-13T17:40:13.599Z,6.20
2022-11-13T17:43:02.635Z,5.57
2022-11-13T17:45:52.167Z,5.95
2022-11-13T17:48:40.580Z,2.97
2022-11-13T17:51:28.628Z,23.27
2022-11-13T17:54:16.472Z,9.70
2022-11-13T17:57:05.914Z,12.18
2022-11-13T17:59:54.958Z,19.30
2022-11-13T18:02:43.107Z,22.50
2022-11-13T18:05:30.964Z,37.90
2022-11-13T18:08:18.867Z,77.07
2022-11-13T18:11:10.170Z,58.50
2022-11-13T18:13:57.959Z,39.78
2022-11-13T18:16:47.063Z,51.47
2022-11-13T18:19:34.829Z,44.03
2022-11-13T18:22:22.661Z,42.90
2022-11-13T18:25:11.261Z,42.40
2022-11-13T18:27:59.353Z,48.47
2022-11-13T18:30:49.753Z,34.85
2022-11-13T18:33:43.260Z,38.65
2022-11-13T18:36:31.888Z,34.55
2022-11-13T18:39:19.417Z,34.45
2022-11-13T18:42:07.070Z,32.42
2022-11-13T18:44:55.020Z,38.72
2022-11-13T18:47:42.620Z,26.23
2022-11-13T18:50:31.680Z,31.08
2022-11-13T18:53:19.659Z,35.55
2022-11-13T18:56:09.033Z,27.55
2022-11-13T18:58:58.233Z,40.05
2022-11-13T19:01:45.854Z,33.90
2022-11-13T19:04:35.822Z,47.10
2022-11-13T19:07:25.165Z,31.77
2022-11-13T19:10:12.923Z,63.08
2022-11-13T19:13:00.558Z,28.52
2022-11-13T19:15:50.264Z,41.45
2022-11-13T19:18:38.825Z,40.13
2022-11-13T19:21:28.877Z,25.38
2022-11-13T19:24:18.260Z,21.00
2022-11-13T19:27:07.450Z,30.52
2022-11-13T19:29:55.492Z,21.38
2022-11-13T19:32:43.270Z,19.13
2022-11-13T19:35:31.182Z,19.77
2022-11-13T19:38:18.892Z,17.38
2022-11-13T19:41:09.011Z,15.27
2022-11-13T19:43:58.710Z,14.50
2022-11-13T19:46:46.818Z,13.18
2022-11-13T19:49:35.454Z,17.20
2022-11-13T19:52:23.454Z,11.10
2022-11-13T19:55:11.589Z,13.95
2022-11-13T19:58:02.409Z,9.38
2022-11-13T20:00:50.451Z,11.38
2022-11-13T20:03:38.895Z,9.82
2022-11-13T20:06:28.207Z,9.77
2022-11-13T20:09:17.039Z,7.63
2022-11-13T20:12:05.412Z,9.27
2022-11-13T20:14:55.179Z,9.65
2022-11-13T20:17:43.952Z,8.35
2022-11-13T20:20:32.385Z,9.18
2022-11-13T20:23:20.632Z,7.13
2022-11-13T20:26:12.495Z,7.90
2022-11-13T20:29:01.076Z,7.00
2022-11-13T20:31:52.297Z,8.48
2022-11-13T20:34:40.156Z,6.43
2022-11-13T20:37:28.186Z,5.88
2022-11-13T20:40:16.050Z,6.15
2022-11-13T20:43:04.271Z,6.35
2022-11-13T20:45:52.345Z,6.60
2022-11-13T20:48:41.878Z,5.15
2022-11-13T20:51:30.651Z,9.00
2022-11-13T20:54:18.805Z,6.65
2022-11-13T20:57:07.143Z,6.35
2022-11-13T20:59:54.785Z,10.85
2022-11-13T21:02:42.429Z,6.63
2022-11-13T21:05:31.760Z,6.47
2022-11-13T21:08:19.682Z,6.38
2022-11-13T21:11:08.863Z,5.28
2022-11-13T21:13:57.918Z,6.07
2022-11-13T21:16:45.925Z,6.85
2022-11-13T21:19:33.571Z,6.70
2022-11-13T21:22:22.573Z,5.72
2022-11-13T21:25:10.947Z,4.40
2022-11-13T21:27:58.708Z,4.35
2022-11-13T21:30:46.586Z,5.32
2022-11-13T21:33:38.194Z,4.90
2022-11-13T21:36:30.213Z,5.95
2022-11-13T21:39:19.468Z,4.93
2022-11-13T21:42:07.415Z,3.72
2022-11-13T21:44:54.993Z,5.22
2022-11-13T21:47:43.506Z,4.85
2022-11-13T21:50:31.396Z,4.60
2022-11-13T21:53:19.201Z,4.93
2022-11-13T21:56:15.113Z,3.92
2022-11-13T21:59:03.225Z,4.78
2022-11-13T22:01:51.107Z,4.88
2022-11-13T22:04:38.572Z,4.78
2022-11-13T22:07:26.285Z,5.88
2022-11-13T22:10:13.886Z,4.65
2022-11-13T22:13:02.766Z,4.50
2022-11-13T22:15:51.124Z,5.22
2022-11-13T22:18:39.042Z,5.78
2022-11-13T22:21:29.722Z,4.43
2022-11-13T22:24:17.661Z,4.25
2022-11-13T22:27:05.406Z,4.93
2022-11-13T22:29:54.345Z,6.05
2022-11-13T22:32:42.147Z,3.55
2022-11-13T22:35:30.005Z,3.80
2022-11-13T22:38:18.041Z,4.30
2022-11-13T22:41:07.723Z,6.30
2022-11-13T22:43:58.072Z,6.18
2022-11-13T22:46:47.278Z,4.32
2022-11-13T22:49:35.018Z,3.78
2022-11-13T22:52:22.674Z,3.80
2022-11-13T22:55:10.540Z,3.22
2022-11-13T22:58:00.437Z,3.75
2022-11-13T23:00:48.090Z,3.40
2022-11-13T23:03:41.897Z,3.65
2022-11-13T23:06:31.687Z,5.90
2022-11-13T23:09:19.239Z,3.30
2022-11-13T23:12:07.074Z,3.70
2022-11-13T23:14:54.659Z,3.28
2022-11-13T23:17:42.457Z,3.80
2022-11-13T23:20:31.372Z,3.97
2022-11-13T23:23:19.286Z,5.03
2022-11-13T23:26:08.549Z,3.75
2022-11-13T23:28:56.790Z,3.75
2022-11-13T23:31:44.603Z,4.57
2022-11-13T23:34:58.312Z,4.13
2022-11-13T23:37:41.432Z,3.85
2022-11-13T23:40:29.314Z,3.15
2022-11-13T23:43:16.965Z,3.53
2022-11-13T23:46:05.228Z,4.22
2022-11-13T23:48:52.660Z,3.33
2022-11-13T23:51:40.083Z,3.80
2022-11-13T23:54:29.212Z,3.47
2022-11-13T23:57:17.758Z,3.38
